sensor_id;sensor_type;location;lat;lon;timestamp;temperature;humidity
40670;DHT22;26355;45.528;9.234;2022-10-26T00:02:24;20.80;99.90
40670;DHT22;26355;45.528;9.234;2022-10-26T00:04:50;20.80;99.90
40670;DHT22;26355;45.528;9.234;2022-10-26T00:07:16;20.80;99.90
40670;DHT22;26355;45.528;9.234;2022-10-26T00:09:41;20.80;99.90
40670;DHT22;26355;45.528;9.234;2022-10-26T00:12:07;20.80;99.90
40670;DHT22;26355;45.528;9.234;2022-10-26T00:14:33;20.80;99.90
40670;DHT22;26355;45.528;9.234;2022-10-26T00:16:59;20.80;99.90
40670;DHT22;26355;45.528;9.234;2022-10-26T00:19:25;20.80;99.90
40670;DHT22;26355;45.528;9.234;2022-10-26T00:21:51;20.80;99.90
40670;DHT22;26355;45.528;9.234;2022-10-26T00:24:17;20.80;99.90
40670;DHT22;26355;45.528;9.234;2022-10-26T00:26:43;20.70;99.90
40670;DHT22;26355;45.528;9.234;2022-10-26T00:29:10;20.70;99.90
40670;DHT22;26355;45.528;9.234;2022-10-26T00:31:37;20.70;99.90
40670;DHT22;26355;45.528;9.234;2022-10-26T00:34:03;20.70;99.90
40670;DHT22;26355;45.528;9.234;2022-10-26T00:36:28;20.70;99.90
40670;DHT22;26355;45.528;9.234;2022-10-26T00:38:55;20.70;99.90
40670;DHT22;26355;45.528;9.234;2022-10-26T00:41:27;20.70;99.90
40670;DHT22;26355;45.528;9.234;2022-10-26T00:43:53;20.60;99.90
40670;DHT22;26355;45.528;9.234;2022-10-26T00:46:39;20.60;99.90
40670;DHT22;26355;45.528;9.234;2022-10-26T00:49:12;20.60;99.90
40670;DHT22;26355;45.528;9.234;2022-10-26T00:51:43;20.60;99.90
40670;DHT22;26355;45.528;9.234;2022-10-26T00:54:14;20.60;99.90
40670;DHT22;26355;45.528;9.234;2022-10-26T00:56:46;20.50;99.90
40670;DHT22;26355;45.528;9.234;2022-10-26T00:59:15;20.50;99.90
40670;DHT22;26355;45.528;9.234;2022-10-26T01:01:43;20.50;99.90
40670;DHT22;26355;45.528;9.234;2022-10-26T01:04:11;20.60;99.90
40670;DHT22;26355;45.528;9.234;2022-10-26T01:06:37;20.60;99.90
40670;DHT22;26355;45.528;9.234;2022-10-26T01:09:04;20.50;99.90
40670;DHT22;26355;45.528;9.234;2022-10-26T01:11:30;20.50;99.90
40670;DHT22;26355;45.528;9.234;2022-10-26T01:13:56;20.50;99.90
40670;DHT22;26355;45.528;9.234;2022-10-26T01:22:16;20.30;99.90
40670;DHT22;26355;45.528;9.234;2022-10-26T01:27:39;20.30;99.90
40670;DHT22;26355;45.528;9.234;2022-10-26T01:35:28;20.20;99.90
40670;DHT22;26355;45.528;9.234;2022-10-26T01:38:04;20.30;99.90
40670;DHT22;26355;45.528;9.234;2022-10-26T01:40:41;20.30;99.90
40670;DHT22;26355;45.528;9.234;2022-10-26T01:43:11;20.30;99.90
40670;DHT22;26355;45.528;9.234;2022-10-26T01:45:40;20.30;99.90
40670;DHT22;26355;45.528;9.234;2022-10-26T01:48:08;20.40;99.90
40670;DHT22;26355;45.528;9.234;2022-10-26T01:50:38;20.40;99.90
40670;DHT22;26355;45.528;9.234;2022-10-26T01:53:04;20.40;99.90
40670;DHT22;26355;45.528;9.234;2022-10-26T01:55:41;20.30;99.90
40670;DHT22;26355;45.528;9.234;2022-10-26T02:01:49;20.40;99.90
40670;DHT22;26355;45.528;9.234;2022-10-26T02:04:33;20.40;99.90
40670;DHT22;26355;45.528;9.234;2022-10-26T02:12:57;20.30;99.90
40670;DHT22;26355;45.528;9.234;2022-10-26T02:15:38;20.30;99.90
40670;DHT22;26355;45.528;9.234;2022-10-26T02:18:27;20.30;99.90
40670;DHT22;26355;45.528;9.234;2022-10-26T02:21:06;20.30;99.90
40670;DHT22;26355;45.528;9.234;2022-10-26T02:23:36;20.30;99.90
40670;DHT22;26355;45.528;9.234;2022-10-26T02:26:07;20.40;99.90
40670;DHT22;26355;45.528;9.234;2022-10-26T02:28:36;20.30;99.90
40670;DHT22;26355;45.528;9.234;2022-10-26T02:31:04;20.30;99.90
40670;DHT22;26355;45.528;9.234;2022-10-26T02:33:32;20.30;99.90
40670;DHT22;26355;45.528;9.234;2022-10-26T02:36:02;20.20;99.90
40670;DHT22;26355;45.528;9.234;2022-10-26T02:38:31;20.20;99.90
40670;DHT22;26355;45.528;9.234;2022-10-26T02:40:59;20.30;99.90
40670;DHT22;26355;45.528;9.234;2022-10-26T02:43:26;20.20;99.90
40670;DHT22;26355;45.528;9.234;2022-10-26T02:45:56;20.30;99.90
40670;DHT22;26355;45.528;9.234;2022-10-26T02:48:23;20.20;99.90
40670;DHT22;26355;45.528;9.234;2022-10-26T02:51:13;20.30;99.90
40670;DHT22;26355;45.528;9.234;2022-10-26T02:54:00;20.20;99.90
40670;DHT22;26355;45.528;9.234;2022-10-26T02:56:47;20.30;99.90
40670;DHT22;26355;45.528;9.234;2022-10-26T02:59:14;20.20;99.90
40670;DHT22;26355;45.528;9.234;2022-10-26T03:01:41;20.20;99.90
40670;DHT22;26355;45.528;9.234;2022-10-26T03:04:08;20.20;99.90
40670;DHT22;26355;45.528;9.234;2022-10-26T03:06:33;20.30;99.90
40670;DHT22;26355;45.528;9.234;2022-10-26T03:08:59;20.30;99.90
40670;DHT22;26355;45.528;9.234;2022-10-26T03:11:24;20.30;99.90
40670;DHT22;26355;45.528;9.234;2022-10-26T03:13:50;20.30;99.90
40670;DHT22;26355;45.528;9.234;2022-10-26T03:16:16;20.30;99.90
40670;DHT22;26355;45.528;9.234;2022-10-26T03:18:41;20.30;99.90
40670;DHT22;26355;45.528;9.234;2022-10-26T03:21:07;20.30;99.90
40670;DHT22;26355;45.528;9.234;2022-10-26T03:23:33;20.30;99.90
40670;DHT22;26355;45.528;9.234;2022-10-26T03:25:59;20.30;99.90
40670;DHT22;26355;45.528;9.234;2022-10-26T03:28:25;20.30;99.90
40670;DHT22;26355;45.528;9.234;2022-10-26T03:30:51;20.30;99.90
40670;DHT22;26355;45.528;9.234;2022-10-26T03:33:16;20.30;99.90
40670;DHT22;26355;45.528;9.234;2022-10-26T03:35:42;20.30;99.90
40670;DHT22;26355;45.528;9.234;2022-10-26T03:38:08;20.30;99.90
40670;DHT22;26355;45.528;9.234;2022-10-26T03:40:35;20.40;99.90
40670;DHT22;26355;45.528;9.234;2022-10-26T03:43:01;20.30;99.90
40670;DHT22;26355;45.528;9.234;2022-10-26T03:45:26;20.40;99.90
40670;DHT22;26355;45.528;9.234;2022-10-26T03:47:52;20.30;99.90
40670;DHT22;26355;45.528;9.234;2022-10-26T03:50:19;20.20;99.90
40670;DHT22;26355;45.528;9.234;2022-10-26T03:52:46;20.30;99.90
40670;DHT22;26355;45.528;9.234;2022-10-26T03:55:13;20.30;99.90
40670;DHT22;26355;45.528;9.234;2022-10-26T03:57:43;20.30;99.90
40670;DHT22;26355;45.528;9.234;2022-10-26T04:00:11;20.30;99.90
40670;DHT22;26355;45.528;9.234;2022-10-26T04:02:36;20.30;99.90
40670;DHT22;26355;45.528;9.234;2022-10-26T04:05:02;20.30;99.90
40670;DHT22;26355;45.528;9.234;2022-10-26T04:07:28;20.20;99.90
40670;DHT22;26355;45.528;9.234;2022-10-26T04:09:54;20.20;99.90
40670;DHT22;26355;45.528;9.234;2022-10-26T04:12:19;20.10;99.90
40670;DHT22;26355;45.528;9.234;2022-10-26T04:14:45;20.10;99.90
40670;DHT22;26355;45.528;9.234;2022-10-26T04:17:10;20.10;99.90
40670;DHT22;26355;45.528;9.234;2022-10-26T04:19:36;20.20;99.90
40670;DHT22;26355;45.528;9.234;2022-10-26T04:22:02;20.20;99.90
40670;DHT22;26355;45.528;9.234;2022-10-26T04:24:27;20.20;99.90
40670;DHT22;26355;45.528;9.234;2022-10-26T04:26:53;20.30;99.90
40670;DHT22;26355;45.528;9.234;2022-10-26T04:29:18;20.30;99.90
40670;DHT22;26355;45.528;9.234;2022-10-26T04:31:44;20.20;99.90
40670;DHT22;26355;45.528;9.234;2022-10-26T04:34:09;20.20;99.90
40670;DHT22;26355;45.528;9.234;2022-10-26T04:36:35;20.20;99.90
40670;DHT22;26355;45.528;9.234;2022-10-26T04:39:01;20.20;99.90
40670;DHT22;26355;45.528;9.234;2022-10-26T04:41:26;20.30;99.90
40670;DHT22;26355;45.528;9.234;2022-10-26T04:43:52;20.30;99.90
40670;DHT22;26355;45.528;9.234;2022-10-26T04:46:17;20.30;99.90
40670;DHT22;26355;45.528;9.234;2022-10-26T04:48:43;20.30;99.90
40670;DHT22;26355;45.528;9.234;2022-10-26T04:51:09;20.30;99.90
40670;DHT22;26355;45.528;9.234;2022-10-26T04:53:34;20.30;99.90
40670;DHT22;26355;45.528;9.234;2022-10-26T04:56:00;20.30;99.90
40670;DHT22;26355;45.528;9.234;2022-10-26T04:58:27;20.30;99.90
40670;DHT22;26355;45.528;9.234;2022-10-26T05:00:53;20.30;99.90
40670;DHT22;26355;45.528;9.234;2022-10-26T05:03:19;20.30;99.90
40670;DHT22;26355;45.528;9.234;2022-10-26T05:05:44;20.30;99.90
40670;DHT22;26355;45.528;9.234;2022-10-26T05:08:12;20.30;99.90
40670;DHT22;26355;45.528;9.234;2022-10-26T05:10:38;20.30;99.90
40670;DHT22;26355;45.528;9.234;2022-10-26T05:13:04;20.40;99.90
40670;DHT22;26355;45.528;9.234;2022-10-26T05:15:30;20.30;99.90
40670;DHT22;26355;45.528;9.234;2022-10-26T05:17:58;20.30;99.90
40670;DHT22;26355;45.528;9.234;2022-10-26T05:20:25;20.30;99.90
40670;DHT22;26355;45.528;9.234;2022-10-26T05:23:02;20.30;99.90
40670;DHT22;26355;45.528;9.234;2022-10-26T05:25:29;20.30;99.90
40670;DHT22;26355;45.528;9.234;2022-10-26T05:27:56;20.30;99.90
40670;DHT22;26355;45.528;9.234;2022-10-26T05:30:21;20.20;99.90
40670;DHT22;26355;45.528;9.234;2022-10-26T05:32:53;20.30;99.90
40670;DHT22;26355;45.528;9.234;2022-10-26T05:35:19;20.30;99.90
40670;DHT22;26355;45.528;9.234;2022-10-26T05:37:44;20.30;99.90
40670;DHT22;26355;45.528;9.234;2022-10-26T05:40:10;20.30;99.90
40670;DHT22;26355;45.528;9.234;2022-10-26T05:42:36;20.30;99.90
40670;DHT22;26355;45.528;9.234;2022-10-26T05:45:04;20.30;99.90
40670;DHT22;26355;45.528;9.234;2022-10-26T05:47:30;20.40;99.90
40670;DHT22;26355;45.528;9.234;2022-10-26T05:49:55;20.40;99.90
40670;DHT22;26355;45.528;9.234;2022-10-26T05:52:21;20.40;99.90
40670;DHT22;26355;45.528;9.234;2022-10-26T05:54:51;20.40;99.90
40670;DHT22;26355;45.528;9.234;2022-10-26T05:57:17;20.40;99.90
40670;DHT22;26355;45.528;9.234;2022-10-26T05:59:43;20.40;99.90
40670;DHT22;26355;45.528;9.234;2022-10-26T06:02:18;20.40;99.90
40670;DHT22;26355;45.528;9.234;2022-10-26T06:04:49;20.30;99.90
40670;DHT22;26355;45.528;9.234;2022-10-26T06:07:17;20.40;99.90
40670;DHT22;26355;45.528;9.234;2022-10-26T06:09:44;20.40;99.90
40670;DHT22;26355;45.528;9.234;2022-10-26T06:12:11;20.40;99.90
40670;DHT22;26355;45.528;9.234;2022-10-26T06:14:37;20.40;99.90
40670;DHT22;26355;45.528;9.234;2022-10-26T06:20:18;20.30;99.90
40670;DHT22;26355;45.528;9.234;2022-10-26T06:22:50;20.30;99.90
40670;DHT22;26355;45.528;9.234;2022-10-26T06:30:32;20.50;99.90
40670;DHT22;26355;45.528;9.234;2022-10-26T06:32:58;20.50;99.90
40670;DHT22;26355;45.528;9.234;2022-10-26T06:38:12;20.50;99.90
40670;DHT22;26355;45.528;9.234;2022-10-26T06:40:40;20.50;99.90
40670;DHT22;26355;45.528;9.234;2022-10-26T06:43:23;20.50;99.90
40670;DHT22;26355;45.528;9.234;2022-10-26T06:45:55;20.40;99.90
40670;DHT22;26355;45.528;9.234;2022-10-26T06:48:27;20.50;99.90
40670;DHT22;26355;45.528;9.234;2022-10-26T06:50:54;20.50;99.90
40670;DHT22;26355;45.528;9.234;2022-10-26T06:53:31;20.50;99.90
40670;DHT22;26355;45.528;9.234;2022-10-26T06:55:59;20.60;99.90
40670;DHT22;26355;45.528;9.234;2022-10-26T06:58:33;20.60;99.90
40670;DHT22;26355;45.528;9.234;2022-10-26T07:01:01;20.60;99.90
40670;DHT22;26355;45.528;9.234;2022-10-26T07:03:26;20.60;99.90
40670;DHT22;26355;45.528;9.234;2022-10-26T07:05:52;20.50;99.90
40670;DHT22;26355;45.528;9.234;2022-10-26T07:08:18;20.30;99.90
40670;DHT22;26355;45.528;9.234;2022-10-26T07:10:43;20.10;99.90
40670;DHT22;26355;45.528;9.234;2022-10-26T07:13:10;20.10;99.90
40670;DHT22;26355;45.528;9.234;2022-10-26T07:15:37;20.30;99.90
40670;DHT22;26355;45.528;9.234;2022-10-26T07:18:04;20.50;99.90
40670;DHT22;26355;45.528;9.234;2022-10-26T07:20:31;20.90;99.90
40670;DHT22;26355;45.528;9.234;2022-10-26T07:22:57;21.20;99.90
40670;DHT22;26355;45.528;9.234;2022-10-26T07:25:24;21.40;99.90
40670;DHT22;26355;45.528;9.234;2022-10-26T07:27:50;21.60;99.90
40670;DHT22;26355;45.528;9.234;2022-10-26T07:30:16;21.70;99.90
40670;DHT22;26355;45.528;9.234;2022-10-26T07:32:42;21.90;99.90
40670;DHT22;26355;45.528;9.234;2022-10-26T07:35:08;22.00;99.90
40670;DHT22;26355;45.528;9.234;2022-10-26T07:37:33;22.00;99.90
40670;DHT22;26355;45.528;9.234;2022-10-26T07:39:59;21.90;99.90
40670;DHT22;26355;45.528;9.234;2022-10-26T07:42:24;21.70;99.90
40670;DHT22;26355;45.528;9.234;2022-10-26T07:44:50;21.60;99.90
40670;DHT22;26355;45.528;9.234;2022-10-26T07:47:15;21.50;99.90
40670;DHT22;26355;45.528;9.234;2022-10-26T07:49:41;21.50;99.90
40670;DHT22;26355;45.528;9.234;2022-10-26T07:52:08;21.40;99.90
40670;DHT22;26355;45.528;9.234;2022-10-26T07:54:34;21.40;99.90
40670;DHT22;26355;45.528;9.234;2022-10-26T07:56:59;21.40;99.90
40670;DHT22;26355;45.528;9.234;2022-10-26T07:59:25;21.40;99.90
40670;DHT22;26355;45.528;9.234;2022-10-26T08:01:51;21.30;99.90
40670;DHT22;26355;45.528;9.234;2022-10-26T08:04:17;21.30;99.90
40670;DHT22;26355;45.528;9.234;2022-10-26T08:06:42;21.30;99.90
40670;DHT22;26355;45.528;9.234;2022-10-26T08:09:08;21.40;99.90
40670;DHT22;26355;45.528;9.234;2022-10-26T08:11:34;21.40;99.90
40670;DHT22;26355;45.528;9.234;2022-10-26T08:14:01;21.30;99.90
40670;DHT22;26355;45.528;9.234;2022-10-26T08:16:27;21.40;99.90
40670;DHT22;26355;45.528;9.234;2022-10-26T08:18:53;21.40;99.90
40670;DHT22;26355;45.528;9.234;2022-10-26T08:21:18;21.40;99.90
40670;DHT22;26355;45.528;9.234;2022-10-26T08:23:44;21.40;99.90
40670;DHT22;26355;45.528;9.234;2022-10-26T08:26:10;21.40;99.90
40670;DHT22;26355;45.528;9.234;2022-10-26T08:28:36;21.40;99.90
40670;DHT22;26355;45.528;9.234;2022-10-26T08:31:02;21.40;99.90
40670;DHT22;26355;45.528;9.234;2022-10-26T08:33:28;21.40;99.90
40670;DHT22;26355;45.528;9.234;2022-10-26T08:36:01;21.50;99.90
40670;DHT22;26355;45.528;9.234;2022-10-26T08:38:27;21.40;99.90
40670;DHT22;26355;45.528;9.234;2022-10-26T08:40:53;21.30;99.90
40670;DHT22;26355;45.528;9.234;2022-10-26T08:43:28;21.30;99.90
40670;DHT22;26355;45.528;9.234;2022-10-26T08:46:12;21.30;99.90
40670;DHT22;26355;45.528;9.234;2022-10-26T08:48:51;21.20;99.90
40670;DHT22;26355;45.528;9.234;2022-10-26T08:51:22;21.30;99.90
40670;DHT22;26355;45.528;9.234;2022-10-26T08:54:07;21.40;99.90
40670;DHT22;26355;45.528;9.234;2022-10-26T08:56:42;21.40;99.90
40670;DHT22;26355;45.528;9.234;2022-10-26T09:00:04;21.50;99.90
40670;DHT22;26355;45.528;9.234;2022-10-26T09:02:02;21.50;99.90
40670;DHT22;26355;45.528;9.234;2022-10-26T09:04:33;21.60;99.90
40670;DHT22;26355;45.528;9.234;2022-10-26T09:07:16;21.60;99.90
40670;DHT22;26355;45.528;9.234;2022-10-26T09:12:47;22.10;99.90
40670;DHT22;26355;45.528;9.234;2022-10-26T09:18:33;22.50;99.90
40670;DHT22;26355;45.528;9.234;2022-10-26T09:24:15;22.60;99.90
40670;DHT22;26355;45.528;9.234;2022-10-26T09:29:22;22.60;99.90
40670;DHT22;26355;45.528;9.234;2022-10-26T09:31:49;22.50;99.90
40670;DHT22;26355;45.528;9.234;2022-10-26T09:34:45;22.40;99.90
40670;DHT22;26355;45.528;9.234;2022-10-26T09:37:35;22.50;99.90
40670;DHT22;26355;45.528;9.234;2022-10-26T09:40:16;22.50;99.90
40670;DHT22;26355;45.528;9.234;2022-10-26T09:42:55;22.80;99.90
40670;DHT22;26355;45.528;9.234;2022-10-26T09:45:31;22.90;99.90
40670;DHT22;26355;45.528;9.234;2022-10-26T09:48:04;23.00;99.90
40670;DHT22;26355;45.528;9.234;2022-10-26T09:50:36;23.20;99.90
40670;DHT22;26355;45.528;9.234;2022-10-26T09:53:03;23.40;99.90
40670;DHT22;26355;45.528;9.234;2022-10-26T09:55:30;23.60;99.90
40670;DHT22;26355;45.528;9.234;2022-10-26T09:58:00;23.80;99.90
40670;DHT22;26355;45.528;9.234;2022-10-26T10:00:27;24.00;99.90
40670;DHT22;26355;45.528;9.234;2022-10-26T10:02:57;24.10;99.90
40670;DHT22;26355;45.528;9.234;2022-10-26T10:05:34;24.30;99.90
40670;DHT22;26355;45.528;9.234;2022-10-26T10:08:21;24.40;99.90
40670;DHT22;26355;45.528;9.234;2022-10-26T10:13:53;24.60;99.90
40670;DHT22;26355;45.528;9.234;2022-10-26T10:16:21;24.60;99.90
40670;DHT22;26355;45.528;9.234;2022-10-26T10:18:55;24.90;99.90
40670;DHT22;26355;45.528;9.234;2022-10-26T10:21:39;25.00;99.90
40670;DHT22;26355;45.528;9.234;2022-10-26T10:24:25;25.10;99.90
40670;DHT22;26355;45.528;9.234;2022-10-26T10:29:46;25.50;99.90
40670;DHT22;26355;45.528;9.234;2022-10-26T10:32:17;25.50;99.90
40670;DHT22;26355;45.528;9.234;2022-10-26T10:34:46;25.60;99.90
40670;DHT22;26355;45.528;9.234;2022-10-26T10:37:32;25.70;99.90
40670;DHT22;26355;45.528;9.234;2022-10-26T10:40:21;25.90;99.90
40670;DHT22;26355;45.528;9.234;2022-10-26T10:42:49;26.00;99.90
40670;DHT22;26355;45.528;9.234;2022-10-26T10:45:26;26.10;99.90
40670;DHT22;26355;45.528;9.234;2022-10-26T10:48:23;26.20;99.90
40670;DHT22;26355;45.528;9.234;2022-10-26T10:50:59;26.40;99.90
40670;DHT22;26355;45.528;9.234;2022-10-26T10:53:46;26.50;99.90
40670;DHT22;26355;45.528;9.234;2022-10-26T10:56:30;26.60;99.90
40670;DHT22;26355;45.528;9.234;2022-10-26T10:59:29;26.60;99.90
40670;DHT22;26355;45.528;9.234;2022-10-26T11:05:21;26.80;99.90
40670;DHT22;26355;45.528;9.234;2022-10-26T11:10:18;27.00;99.90
40670;DHT22;26355;45.528;9.234;2022-10-26T11:12:50;26.90;99.90
40670;DHT22;26355;45.528;9.234;2022-10-26T11:15:22;26.90;99.90
40670;DHT22;26355;45.528;9.234;2022-10-26T11:20:34;27.00;99.90
40670;DHT22;26355;45.528;9.234;2022-10-26T11:25:52;27.00;99.90
40670;DHT22;26355;45.528;9.234;2022-10-26T11:28:40;27.10;99.90
40670;DHT22;26355;45.528;9.234;2022-10-26T11:31:13;27.20;99.90
40670;DHT22;26355;45.528;9.234;2022-10-26T11:33:44;27.30;99.90
40670;DHT22;26355;45.528;9.234;2022-10-26T11:36:17;27.40;99.90
40670;DHT22;26355;45.528;9.234;2022-10-26T11:42:08;27.50;99.90
40670;DHT22;26355;45.528;9.234;2022-10-26T11:44:43;27.50;99.90
40670;DHT22;26355;45.528;9.234;2022-10-26T11:47:24;27.60;99.90
40670;DHT22;26355;45.528;9.234;2022-10-26T11:50:05;27.60;99.90
40670;DHT22;26355;45.528;9.234;2022-10-26T11:52:41;27.50;99.90
40670;DHT22;26355;45.528;9.234;2022-10-26T11:55:09;27.50;99.90
40670;DHT22;26355;45.528;9.234;2022-10-26T11:57:36;27.40;99.90
40670;DHT22;26355;45.528;9.234;2022-10-26T12:00:07;27.40;99.90
40670;DHT22;26355;45.528;9.234;2022-10-26T12:02:40;27.20;99.90
40670;DHT22;26355;45.528;9.234;2022-10-26T12:07:55;27.10;99.90
40670;DHT22;26355;45.528;9.234;2022-10-26T12:10:28;27.10;99.90
40670;DHT22;26355;45.528;9.234;2022-10-26T12:15:52;27.00;99.90
40670;DHT22;26355;45.528;9.234;2022-10-26T12:18:31;26.80;99.90
40670;DHT22;26355;45.528;9.234;2022-10-26T12:21:04;26.60;99.90
40670;DHT22;26355;45.528;9.234;2022-10-26T12:23:34;26.50;99.90
40670;DHT22;26355;45.528;9.234;2022-10-26T12:34:21;26.50;99.90
40670;DHT22;26355;45.528;9.234;2022-10-26T13:00:22;26.30;99.90
40670;DHT22;26355;45.528;9.234;2022-10-26T13:03:16;26.20;99.90
40670;DHT22;26355;45.528;9.234;2022-10-26T13:08:49;26.10;99.90
40670;DHT22;26355;45.528;9.234;2022-10-26T13:11:20;26.10;99.90
40670;DHT22;26355;45.528;9.234;2022-10-26T13:13:57;26.10;99.90
40670;DHT22;26355;45.528;9.234;2022-10-26T13:16:25;26.10;99.90
40670;DHT22;26355;45.528;9.234;2022-10-26T13:18:52;26.10;99.90
40670;DHT22;26355;45.528;9.234;2022-10-26T13:21:20;26.10;99.90
40670;DHT22;26355;45.528;9.234;2022-10-26T13:23:54;26.10;99.90
40670;DHT22;26355;45.528;9.234;2022-10-26T13:26:23;26.10;99.90
40670;DHT22;26355;45.528;9.234;2022-10-26T13:28:55;26.10;99.90
40670;DHT22;26355;45.528;9.234;2022-10-26T13:37:17;26.20;99.90
40670;DHT22;26355;45.528;9.234;2022-10-26T13:39:42;26.10;99.90
40670;DHT22;26355;45.528;9.234;2022-10-26T13:42:17;26.10;99.90
40670;DHT22;26355;45.528;9.234;2022-10-26T13:44:54;26.10;99.90
40670;DHT22;26355;45.528;9.234;2022-10-26T13:47:28;26.10;99.90
40670;DHT22;26355;45.528;9.234;2022-10-26T13:50:06;25.90;99.90
40670;DHT22;26355;45.528;9.234;2022-10-26T13:52:41;25.90;99.90
40670;DHT22;26355;45.528;9.234;2022-10-26T13:58:08;25.80;99.90
40670;DHT22;26355;45.528;9.234;2022-10-26T14:00:36;25.80;99.90
40670;DHT22;26355;45.528;9.234;2022-10-26T14:03:12;25.70;99.90
40670;DHT22;26355;45.528;9.234;2022-10-26T14:05:45;25.70;99.90
40670;DHT22;26355;45.528;9.234;2022-10-26T14:08:15;25.60;99.90
40670;DHT22;26355;45.528;9.234;2022-10-26T14:10:46;25.50;99.90
40670;DHT22;26355;45.528;9.234;2022-10-26T14:13:14;25.40;99.90
40670;DHT22;26355;45.528;9.234;2022-10-26T14:15:45;25.40;99.90
40670;DHT22;26355;45.528;9.234;2022-10-26T14:18:22;25.40;99.90
40670;DHT22;26355;45.528;9.234;2022-10-26T14:20:56;25.40;99.90
40670;DHT22;26355;45.528;9.234;2022-10-26T14:23:27;25.40;99.90
40670;DHT22;26355;45.528;9.234;2022-10-26T14:25:53;25.40;99.90
40670;DHT22;26355;45.528;9.234;2022-10-26T14:28:21;25.40;99.90
40670;DHT22;26355;45.528;9.234;2022-10-26T14:30:47;25.40;99.90
40670;DHT22;26355;45.528;9.234;2022-10-26T14:33:26;25.40;99.90
40670;DHT22;26355;45.528;9.234;2022-10-26T14:35:53;25.30;99.90
40670;DHT22;26355;45.528;9.234;2022-10-26T14:38:25;25.30;99.90
40670;DHT22;26355;45.528;9.234;2022-10-26T14:40:53;25.20;99.90
40670;DHT22;26355;45.528;9.234;2022-10-26T14:43:21;25.20;99.90
40670;DHT22;26355;45.528;9.234;2022-10-26T14:45:49;25.20;99.90
40670;DHT22;26355;45.528;9.234;2022-10-26T14:48:28;25.10;99.90
40670;DHT22;26355;45.528;9.234;2022-10-26T14:53:33;25.10;99.90
40670;DHT22;26355;45.528;9.234;2022-10-26T14:56:00;25.10;99.90
40670;DHT22;26355;45.528;9.234;2022-10-26T14:58:28;25.00;99.90
40670;DHT22;26355;45.528;9.234;2022-10-26T15:03:40;25.00;99.90
40670;DHT22;26355;45.528;9.234;2022-10-26T15:06:42;25.00;99.90
40670;DHT22;26355;45.528;9.234;2022-10-26T15:09:32;24.90;99.90
40670;DHT22;26355;45.528;9.234;2022-10-26T15:12:03;24.90;99.90
40670;DHT22;26355;45.528;9.234;2022-10-26T15:14:29;24.90;99.90
40670;DHT22;26355;45.528;9.234;2022-10-26T15:16:57;24.90;99.90
40670;DHT22;26355;45.528;9.234;2022-10-26T15:19:23;24.90;99.90
40670;DHT22;26355;45.528;9.234;2022-10-26T15:21:51;24.90;99.90
40670;DHT22;26355;45.528;9.234;2022-10-26T15:26:45;24.80;99.90
40670;DHT22;26355;45.528;9.234;2022-10-26T15:29:34;24.90;99.90
40670;DHT22;26355;45.528;9.234;2022-10-26T15:32:02;24.80;99.90
40670;DHT22;26355;45.528;9.234;2022-10-26T15:34:28;24.80;99.90
40670;DHT22;26355;45.528;9.234;2022-10-26T15:36:53;24.80;99.90
40670;DHT22;26355;45.528;9.234;2022-10-26T15:39:19;24.80;99.90
40670;DHT22;26355;45.528;9.234;2022-10-26T15:41:46;24.80;99.90
40670;DHT22;26355;45.528;9.234;2022-10-26T15:44:19;24.70;99.90
40670;DHT22;26355;45.528;9.234;2022-10-26T15:46:45;24.70;99.90
40670;DHT22;26355;45.528;9.234;2022-10-26T15:49:19;24.70;99.90
40670;DHT22;26355;45.528;9.234;2022-10-26T15:51:46;24.70;99.90
40670;DHT22;26355;45.528;9.234;2022-10-26T15:54:12;24.60;99.90
40670;DHT22;26355;45.528;9.234;2022-10-26T15:56:38;24.50;99.90
40670;DHT22;26355;45.528;9.234;2022-10-26T15:59:15;24.50;99.90
40670;DHT22;26355;45.528;9.234;2022-10-26T16:01:41;24.50;99.90
40670;DHT22;26355;45.528;9.234;2022-10-26T16:04:08;24.50;99.90
40670;DHT22;26355;45.528;9.234;2022-10-26T16:06:35;24.50;99.90
40670;DHT22;26355;45.528;9.234;2022-10-26T16:09:05;24.40;99.90
40670;DHT22;26355;45.528;9.234;2022-10-26T16:11:32;24.40;99.90
40670;DHT22;26355;45.528;9.234;2022-10-26T16:13:58;24.40;99.90
40670;DHT22;26355;45.528;9.234;2022-10-26T16:16:23;24.40;99.90
40670;DHT22;26355;45.528;9.234;2022-10-26T16:18:53;24.40;99.90
40670;DHT22;26355;45.528;9.234;2022-10-26T16:21:23;24.40;99.90
40670;DHT22;26355;45.528;9.234;2022-10-26T16:23:51;24.30;99.90
40670;DHT22;26355;45.528;9.234;2022-10-26T16:26:18;24.30;99.90
40670;DHT22;26355;45.528;9.234;2022-10-26T16:28:44;24.30;99.90
40670;DHT22;26355;45.528;9.234;2022-10-26T16:31:12;24.20;99.90
40670;DHT22;26355;45.528;9.234;2022-10-26T16:33:38;24.20;99.90
40670;DHT22;26355;45.528;9.234;2022-10-26T16:36:04;24.20;99.90
40670;DHT22;26355;45.528;9.234;2022-10-26T16:38:31;24.10;99.90
40670;DHT22;26355;45.528;9.234;2022-10-26T16:43:26;24.00;99.90
40670;DHT22;26355;45.528;9.234;2022-10-26T16:45:52;24.00;99.90
40670;DHT22;26355;45.528;9.234;2022-10-26T16:48:17;24.00;99.90
40670;DHT22;26355;45.528;9.234;2022-10-26T16:50:43;23.90;99.90
40670;DHT22;26355;45.528;9.234;2022-10-26T16:53:09;23.90;99.90
40670;DHT22;26355;45.528;9.234;2022-10-26T16:55:34;23.80;99.90
40670;DHT22;26355;45.528;9.234;2022-10-26T16:58:00;23.80;99.90
40670;DHT22;26355;45.528;9.234;2022-10-26T17:00:25;23.80;99.90
40670;DHT22;26355;45.528;9.234;2022-10-26T17:02:51;23.80;99.90
40670;DHT22;26355;45.528;9.234;2022-10-26T17:05:16;23.70;99.90
40670;DHT22;26355;45.528;9.234;2022-10-26T17:07:42;23.80;99.90
40670;DHT22;26355;45.528;9.234;2022-10-26T17:10:08;23.70;99.90
40670;DHT22;26355;45.528;9.234;2022-10-26T17:12:33;23.70;99.90
40670;DHT22;26355;45.528;9.234;2022-10-26T17:14:59;23.70;99.90
40670;DHT22;26355;45.528;9.234;2022-10-26T17:17:25;23.60;99.90
40670;DHT22;26355;45.528;9.234;2022-10-26T17:19:51;23.60;99.90
40670;DHT22;26355;45.528;9.234;2022-10-26T17:22:17;23.60;99.90
40670;DHT22;26355;45.528;9.234;2022-10-26T17:24:42;23.60;99.90
40670;DHT22;26355;45.528;9.234;2022-10-26T17:27:08;23.50;99.90
40670;DHT22;26355;45.528;9.234;2022-10-26T17:29:33;23.50;99.90
40670;DHT22;26355;45.528;9.234;2022-10-26T17:31:59;23.50;99.90
40670;DHT22;26355;45.528;9.234;2022-10-26T17:34:24;23.40;99.90
40670;DHT22;26355;45.528;9.234;2022-10-26T17:36:50;23.40;99.90
40670;DHT22;26355;45.528;9.234;2022-10-26T17:39:16;23.40;99.90
40670;DHT22;26355;45.528;9.234;2022-10-26T17:41:43;23.40;99.90
40670;DHT22;26355;45.528;9.234;2022-10-26T17:44:09;23.40;99.90
40670;DHT22;26355;45.528;9.234;2022-10-26T17:46:34;23.30;99.90
40670;DHT22;26355;45.528;9.234;2022-10-26T17:49:00;23.30;99.90
40670;DHT22;26355;45.528;9.234;2022-10-26T17:51:27;23.30;99.90
40670;DHT22;26355;45.528;9.234;2022-10-26T17:53:53;23.30;99.90